sensor_id;sensor_type;location;lat;lon;timestamp;P1;durP1;ratioP1;P2;durP2;ratioP2
56567;SDS011;42456;49.956;20.004;2023-02-01T00:01:06;5.80;;;2.90;;
56567;SDS011;42456;49.956;20.004;2023-02-01T00:03:34;6.90;;;3.00;;
56567;SDS011;42456;49.956;20.004;2023-02-01T00:06:01;5.90;;;2.70;;
56567;SDS011;42456;49.956;20.004;2023-02-01T00:08:28;4.70;;;2.70;;
56567;SDS011;42456;49.956;20.004;2023-02-01T00:11:03;5.80;;;2.70;;
56567;SDS011;42456;49.956;20.004;2023-02-01T00:13:32;5.60;;;2.80;;
56567;SDS011;42456;49.956;20.004;2023-02-01T00:18:31;5.80;;;2.50;;
56567;SDS011;42456;49.956;20.004;2023-02-01T00:20:58;4.80;;;2.60;;
56567;SDS011;42456;49.956;20.004;2023-02-01T00:23:25;4.50;;;2.50;;
56567;SDS011;42456;49.956;20.004;2023-02-01T00:25:53;7.10;;;3.30;;
56567;SDS011;42456;49.956;20.004;2023-02-01T00:28:19;5.70;;;3.00;;
56567;SDS011;42456;49.956;20.004;2023-02-01T00:30:46;5.70;;;2.90;;
56567;SDS011;42456;49.956;20.004;2023-02-01T00:33:27;3.50;;;2.50;;
56567;SDS011;42456;49.956;20.004;2023-02-01T00:35:56;4.50;;;2.70;;
56567;SDS011;42456;49.956;20.004;2023-02-01T00:38:27;6.60;;;2.90;;
56567;SDS011;42456;49.956;20.004;2023-02-01T00:40:56;5.50;;;2.70;;
56567;SDS011;42456;49.956;20.004;2023-02-01T00:43:30;4.00;;;2.80;;
56567;SDS011;42456;49.956;20.004;2023-02-01T00:45:57;5.40;;;2.60;;
56567;SDS011;42456;49.956;20.004;2023-02-01T00:48:24;4.00;;;2.40;;
56567;SDS011;42456;49.956;20.004;2023-02-01T00:50:51;5.60;;;2.70;;
56567;SDS011;42456;49.956;20.004;2023-02-01T00:53:18;5.00;;;2.30;;
56567;SDS011;42456;49.956;20.004;2023-02-01T00:55:46;5.10;;;2.80;;
56567;SDS011;42456;49.956;20.004;2023-02-01T00:58:14;4.40;;;2.50;;
56567;SDS011;42456;49.956;20.004;2023-02-01T01:00:41;4.00;;;2.50;;
56567;SDS011;42456;49.956;20.004;2023-02-01T01:03:08;3.80;;;2.50;;
56567;SDS011;42456;49.956;20.004;2023-02-01T01:05:48;4.10;;;2.40;;
56567;SDS011;42456;49.956;20.004;2023-02-01T01:08:16;5.00;;;2.50;;
56567;SDS011;42456;49.956;20.004;2023-02-01T01:10:43;3.90;;;2.40;;
56567;SDS011;42456;49.956;20.004;2023-02-01T01:13:10;5.60;;;2.90;;
56567;SDS011;42456;49.956;20.004;2023-02-01T01:15:37;3.40;;;2.50;;
56567;SDS011;42456;49.956;20.004;2023-02-01T01:18:05;6.30;;;2.50;;
56567;SDS011;42456;49.956;20.004;2023-02-01T01:20:36;4.30;;;3.00;;
56567;SDS011;42456;49.956;20.004;2023-02-01T01:23:04;3.70;;;2.50;;
56567;SDS011;42456;49.956;20.004;2023-02-01T01:25:36;5.70;;;2.60;;
56567;SDS011;42456;49.956;20.004;2023-02-01T01:28:04;3.80;;;2.50;;
56567;SDS011;42456;49.956;20.004;2023-02-01T01:30:33;4.00;;;2.50;;
56567;SDS011;42456;49.956;20.004;2023-02-01T01:33:01;6.60;;;3.00;;
56567;SDS011;42456;49.956;20.004;2023-02-01T01:35:29;4.60;;;2.70;;
56567;SDS011;42456;49.956;20.004;2023-02-01T01:37:57;4.80;;;2.70;;
56567;SDS011;42456;49.956;20.004;2023-02-01T01:40:25;5.70;;;2.60;;
56567;SDS011;42456;49.956;20.004;2023-02-01T01:42:53;4.80;;;2.50;;
56567;SDS011;42456;49.956;20.004;2023-02-01T01:45:25;7.50;;;2.80;;
56567;SDS011;42456;49.956;20.004;2023-02-01T01:50:30;4.60;;;2.70;;
56567;SDS011;42456;49.956;20.004;2023-02-01T01:53:00;5.70;;;2.90;;
56567;SDS011;42456;49.956;20.004;2023-02-01T01:55:31;2.50;;;2.30;;
56567;SDS011;42456;49.956;20.004;2023-02-01T01:58:11;5.00;;;3.00;;
56567;SDS011;42456;49.956;20.004;2023-02-01T02:00:42;5.60;;;3.10;;
56567;SDS011;42456;49.956;20.004;2023-02-01T02:05:55;5.70;;;3.30;;
56567;SDS011;42456;49.956;20.004;2023-02-01T02:08:24;6.90;;;2.90;;
56567;SDS011;42456;49.956;20.004;2023-02-01T02:13:27;8.40;;;2.30;;
56567;SDS011;42456;49.956;20.004;2023-02-01T02:16:08;5.00;;;2.80;;
56567;SDS011;42456;49.956;20.004;2023-02-01T02:24:48;7.20;;;2.70;;
56567;SDS011;42456;49.956;20.004;2023-02-01T02:39:04;6.60;;;2.40;;
56567;SDS011;42456;49.956;20.004;2023-02-01T02:44:41;4.70;;;1.80;;
56567;SDS011;42456;49.956;20.004;2023-02-01T02:47:49;3.50;;;1.90;;
56567;SDS011;42456;49.956;20.004;2023-02-01T02:53:15;2.90;;;1.50;;
56567;SDS011;42456;49.956;20.004;2023-02-01T02:55:59;7.20;;;2.20;;
56567;SDS011;42456;49.956;20.004;2023-02-01T02:58:43;6.10;;;1.60;;
56567;SDS011;42456;49.956;20.004;2023-02-01T03:01:27;6.50;;;2.20;;
56567;SDS011;42456;49.956;20.004;2023-02-01T03:04:08;3.50;;;1.30;;
56567;SDS011;42456;49.956;20.004;2023-02-01T03:06:38;5.10;;;1.50;;
56567;SDS011;42456;49.956;20.004;2023-02-01T03:09:06;3.40;;;1.00;;
56567;SDS011;42456;49.956;20.004;2023-02-01T03:11:39;2.30;;;0.80;;
56567;SDS011;42456;49.956;20.004;2023-02-01T03:14:25;9.20;;;1.60;;
56567;SDS011;42456;49.956;20.004;2023-02-01T03:17:01;4.60;;;1.40;;
56567;SDS011;42456;49.956;20.004;2023-02-01T03:19:45;4.60;;;1.20;;
56567;SDS011;42456;49.956;20.004;2023-02-01T03:22:17;2.40;;;1.40;;
56567;SDS011;42456;49.956;20.004;2023-02-01T03:27:27;4.70;;;1.60;;
56567;SDS011;42456;49.956;20.004;2023-02-01T03:32:51;2.20;;;1.40;;
56567;SDS011;42456;49.956;20.004;2023-02-01T03:38:36;4.10;;;1.60;;
56567;SDS011;42456;49.956;20.004;2023-02-01T03:43:58;1.60;;;1.40;;
56567;SDS011;42456;49.956;20.004;2023-02-01T03:46:50;4.20;;;1.60;;
56567;SDS011;42456;49.956;20.004;2023-02-01T03:49:29;2.20;;;1.30;;
56567;SDS011;42456;49.956;20.004;2023-02-01T03:52:10;5.50;;;1.70;;
56567;SDS011;42456;49.956;20.004;2023-02-01T03:54:41;5.30;;;2.00;;
56567;SDS011;42456;49.956;20.004;2023-02-01T03:57:11;3.20;;;1.40;;
56567;SDS011;42456;49.956;20.004;2023-02-01T03:59:44;4.20;;;1.80;;
56567;SDS011;42456;49.956;20.004;2023-02-01T04:02:11;6.50;;;1.90;;
56567;SDS011;42456;49.956;20.004;2023-02-01T04:04:39;2.40;;;1.50;;
56567;SDS011;42456;49.956;20.004;2023-02-01T04:07:05;4.00;;;1.50;;
56567;SDS011;42456;49.956;20.004;2023-02-01T04:09:32;5.10;;;1.50;;
56567;SDS011;42456;49.956;20.004;2023-02-01T04:11:59;4.40;;;2.00;;
56567;SDS011;42456;49.956;20.004;2023-02-01T04:14:26;3.50;;;1.80;;
56567;SDS011;42456;49.956;20.004;2023-02-01T04:16:53;4.90;;;1.50;;
56567;SDS011;42456;49.956;20.004;2023-02-01T04:19:20;2.10;;;1.40;;
56567;SDS011;42456;49.956;20.004;2023-02-01T04:21:47;5.60;;;2.10;;
56567;SDS011;42456;49.956;20.004;2023-02-01T04:24:14;3.90;;;2.00;;
56567;SDS011;42456;49.956;20.004;2023-02-01T04:26:41;3.80;;;2.10;;
56567;SDS011;42456;49.956;20.004;2023-02-01T04:29:08;4.80;;;1.90;;
56567;SDS011;42456;49.956;20.004;2023-02-01T04:31:37;4.50;;;2.10;;
56567;SDS011;42456;49.956;20.004;2023-02-01T04:34:04;3.60;;;1.90;;
56567;SDS011;42456;49.956;20.004;2023-02-01T04:36:31;3.20;;;2.10;;
56567;SDS011;42456;49.956;20.004;2023-02-01T04:38:58;6.70;;;2.30;;
56567;SDS011;42456;49.956;20.004;2023-02-01T04:41:24;6.50;;;2.40;;
56567;SDS011;42456;49.956;20.004;2023-02-01T04:43:51;4.50;;;1.80;;
56567;SDS011;42456;49.956;20.004;2023-02-01T04:46:19;4.80;;;1.70;;
56567;SDS011;42456;49.956;20.004;2023-02-01T04:48:46;4.30;;;2.00;;
56567;SDS011;42456;49.956;20.004;2023-02-01T04:51:13;7.00;;;2.00;;
56567;SDS011;42456;49.956;20.004;2023-02-01T04:53:41;4.20;;;1.90;;
56567;SDS011;42456;49.956;20.004;2023-02-01T04:56:08;3.00;;;1.50;;
56567;SDS011;42456;49.956;20.004;2023-02-01T04:58:35;5.40;;;1.90;;
56567;SDS011;42456;49.956;20.004;2023-02-01T05:01:03;5.40;;;2.00;;
56567;SDS011;42456;49.956;20.004;2023-02-01T05:03:31;4.70;;;1.90;;
56567;SDS011;42456;49.956;20.004;2023-02-01T05:05:59;5.30;;;2.30;;
56567;SDS011;42456;49.956;20.004;2023-02-01T05:08:27;5.40;;;2.30;;
56567;SDS011;42456;49.956;20.004;2023-02-01T05:10:55;5.80;;;2.10;;
56567;SDS011;42456;49.956;20.004;2023-02-01T05:13:22;7.30;;;2.20;;
56567;SDS011;42456;49.956;20.004;2023-02-01T05:16:02;5.40;;;2.20;;
56567;SDS011;42456;49.956;20.004;2023-02-01T05:18:29;5.10;;;2.30;;
56567;SDS011;42456;49.956;20.004;2023-02-01T05:20:56;5.80;;;2.20;;
56567;SDS011;42456;49.956;20.004;2023-02-01T05:23:23;6.30;;;2.40;;
56567;SDS011;42456;49.956;20.004;2023-02-01T05:25:50;2.60;;;1.90;;
56567;SDS011;42456;49.956;20.004;2023-02-01T05:28:17;3.10;;;1.90;;
56567;SDS011;42456;49.956;20.004;2023-02-01T05:30:44;3.10;;;1.80;;
56567;SDS011;42456;49.956;20.004;2023-02-01T05:33:11;3.10;;;2.30;;
56567;SDS011;42456;49.956;20.004;2023-02-01T05:35:38;5.60;;;1.40;;
56567;SDS011;42456;49.956;20.004;2023-02-01T05:38:04;6.80;;;3.10;;
56567;SDS011;42456;49.956;20.004;2023-02-01T05:40:31;8.10;;;2.90;;
56567;SDS011;42456;49.956;20.004;2023-02-01T05:42:58;6.50;;;2.90;;
56567;SDS011;42456;49.956;20.004;2023-02-01T05:45:25;3.70;;;2.00;;
56567;SDS011;42456;49.956;20.004;2023-02-01T05:47:52;4.20;;;2.00;;
56567;SDS011;42456;49.956;20.004;2023-02-01T05:50:19;3.20;;;2.00;;
56567;SDS011;42456;49.956;20.004;2023-02-01T05:52:47;3.80;;;1.70;;
56567;SDS011;42456;49.956;20.004;2023-02-01T05:55:13;4.80;;;2.30;;
56567;SDS011;42456;49.956;20.004;2023-02-01T05:57:40;4.60;;;2.30;;
56567;SDS011;42456;49.956;20.004;2023-02-01T06:00:07;3.60;;;2.00;;
56567;SDS011;42456;49.956;20.004;2023-02-01T06:02:35;5.70;;;2.30;;
56567;SDS011;42456;49.956;20.004;2023-02-01T06:05:02;9.10;;;2.50;;
56567;SDS011;42456;49.956;20.004;2023-02-01T06:07:28;6.70;;;2.20;;
56567;SDS011;42456;49.956;20.004;2023-02-01T06:09:55;7.10;;;2.40;;
56567;SDS011;42456;49.956;20.004;2023-02-01T06:12:22;7.20;;;2.30;;
56567;SDS011;42456;49.956;20.004;2023-02-01T06:14:49;7.20;;;2.70;;
56567;SDS011;42456;49.956;20.004;2023-02-01T06:17:16;9.50;;;3.00;;
56567;SDS011;42456;49.956;20.004;2023-02-01T06:19:43;5.70;;;2.50;;
56567;SDS011;42456;49.956;20.004;2023-02-01T06:22:11;6.50;;;2.20;;
56567;SDS011;42456;49.956;20.004;2023-02-01T06:24:37;9.90;;;3.00;;
56567;SDS011;42456;49.956;20.004;2023-02-01T06:27:04;6.20;;;2.50;;
56567;SDS011;42456;49.956;20.004;2023-02-01T06:29:31;9.80;;;2.40;;
56567;SDS011;42456;49.956;20.004;2023-02-01T06:31:58;7.10;;;2.30;;
56567;SDS011;42456;49.956;20.004;2023-02-01T06:34:25;7.30;;;2.80;;
56567;SDS011;42456;49.956;20.004;2023-02-01T06:36:52;8.90;;;2.40;;
56567;SDS011;42456;49.956;20.004;2023-02-01T06:39:21;6.40;;;2.30;;
56567;SDS011;42456;49.956;20.004;2023-02-01T06:41:48;9.10;;;2.40;;
56567;SDS011;42456;49.956;20.004;2023-02-01T06:44:15;7.50;;;2.70;;
56567;SDS011;42456;49.956;20.004;2023-02-01T06:46:42;9.80;;;2.70;;
56567;SDS011;42456;49.956;20.004;2023-02-01T06:49:10;12.00;;;2.30;;
56567;SDS011;42456;49.956;20.004;2023-02-01T06:51:36;10.30;;;3.10;;
56567;SDS011;42456;49.956;20.004;2023-02-01T06:54:03;10.70;;;2.40;;
56567;SDS011;42456;49.956;20.004;2023-02-01T06:56:30;7.30;;;2.20;;
56567;SDS011;42456;49.956;20.004;2023-02-01T06:58:58;7.70;;;2.20;;
56567;SDS011;42456;49.956;20.004;2023-02-01T07:01:24;7.70;;;2.10;;
56567;SDS011;42456;49.956;20.004;2023-02-01T07:03:51;10.20;;;2.20;;
56567;SDS011;42456;49.956;20.004;2023-02-01T07:06:18;7.50;;;2.20;;
56567;SDS011;42456;49.956;20.004;2023-02-01T07:08:45;8.30;;;2.60;;
56567;SDS011;42456;49.956;20.004;2023-02-01T07:11:13;10.10;;;3.10;;
56567;SDS011;42456;49.956;20.004;2023-02-01T07:13:41;7.90;;;2.40;;
56567;SDS011;42456;49.956;20.004;2023-02-01T07:16:09;8.50;;;2.90;;
56567;SDS011;42456;49.956;20.004;2023-02-01T07:18:37;9.80;;;2.60;;
56567;SDS011;42456;49.956;20.004;2023-02-01T07:21:04;6.60;;;2.20;;
56567;SDS011;42456;49.956;20.004;2023-02-01T07:23:31;7.40;;;2.30;;
56567;SDS011;42456;49.956;20.004;2023-02-01T07:26:00;9.40;;;2.90;;
56567;SDS011;42456;49.956;20.004;2023-02-01T07:28:29;5.60;;;2.50;;
56567;SDS011;42456;49.956;20.004;2023-02-01T07:31:02;7.40;;;2.20;;
56567;SDS011;42456;49.956;20.004;2023-02-01T07:33:33;6.10;;;2.10;;
56567;SDS011;42456;49.956;20.004;2023-02-01T07:36:02;8.20;;;2.30;;
56567;SDS011;42456;49.956;20.004;2023-02-01T07:38:30;7.10;;;2.30;;
56567;SDS011;42456;49.956;20.004;2023-02-01T07:41:00;8.00;;;2.50;;
56567;SDS011;42456;49.956;20.004;2023-02-01T07:43:29;5.60;;;2.50;;
56567;SDS011;42456;49.956;20.004;2023-02-01T07:45:57;8.10;;;2.40;;
56567;SDS011;42456;49.956;20.004;2023-02-01T07:48:24;8.00;;;2.80;;
56567;SDS011;42456;49.956;20.004;2023-02-01T07:51:02;7.10;;;2.60;;
56567;SDS011;42456;49.956;20.004;2023-02-01T07:53:32;8.40;;;2.50;;
56567;SDS011;42456;49.956;20.004;2023-02-01T07:56:00;8.40;;;2.40;;
56567;SDS011;42456;49.956;20.004;2023-02-01T07:58:27;8.10;;;2.40;;
56567;SDS011;42456;49.956;20.004;2023-02-01T08:00:55;6.00;;;2.60;;
56567;SDS011;42456;49.956;20.004;2023-02-01T08:03:36;8.30;;;2.70;;
56567;SDS011;42456;49.956;20.004;2023-02-01T08:06:03;12.90;;;3.10;;
56567;SDS011;42456;49.956;20.004;2023-02-01T08:08:30;10.40;;;2.70;;
56567;SDS011;42456;49.956;20.004;2023-02-01T08:10:58;8.20;;;2.70;;
56567;SDS011;42456;49.956;20.004;2023-02-01T08:13:29;5.50;;;2.50;;
56567;SDS011;42456;49.956;20.004;2023-02-01T08:15:59;6.80;;;2.40;;
56567;SDS011;42456;49.956;20.004;2023-02-01T08:18:28;8.20;;;2.70;;
56567;SDS011;42456;49.956;20.004;2023-02-01T08:20:56;5.90;;;2.50;;
56567;SDS011;42456;49.956;20.004;2023-02-01T08:23:23;7.30;;;2.60;;
56567;SDS011;42456;49.956;20.004;2023-02-01T08:25:50;8.70;;;2.60;;
56567;SDS011;42456;49.956;20.004;2023-02-01T08:28:17;6.30;;;2.50;;
56567;SDS011;42456;49.956;20.004;2023-02-01T08:30:44;8.40;;;2.50;;
56567;SDS011;42456;49.956;20.004;2023-02-01T08:33:11;8.30;;;2.90;;
56567;SDS011;42456;49.956;20.004;2023-02-01T08:35:38;10.80;;;2.40;;
56567;SDS011;42456;49.956;20.004;2023-02-01T08:38:09;10.80;;;2.50;;
56567;SDS011;42456;49.956;20.004;2023-02-01T08:40:36;9.30;;;2.60;;
56567;SDS011;42456;49.956;20.004;2023-02-01T08:43:03;6.40;;;2.50;;
56567;SDS011;42456;49.956;20.004;2023-02-01T08:45:30;6.00;;;2.40;;
56567;SDS011;42456;49.956;20.004;2023-02-01T08:47:57;8.70;;;2.50;;
56567;SDS011;42456;49.956;20.004;2023-02-01T08:50:24;8.80;;;2.90;;
56567;SDS011;42456;49.956;20.004;2023-02-01T08:52:52;8.90;;;2.60;;
56567;SDS011;42456;49.956;20.004;2023-02-01T08:55:19;9.00;;;3.00;;
56567;SDS011;42456;49.956;20.004;2023-02-01T08:57:47;4.30;;;2.30;;
56567;SDS011;42456;49.956;20.004;2023-02-01T09:00:15;6.40;;;2.70;;
56567;SDS011;42456;49.956;20.004;2023-02-01T09:02:44;10.20;;;2.80;;
56567;SDS011;42456;49.956;20.004;2023-02-01T09:05:11;10.10;;;3.10;;
56567;SDS011;42456;49.956;20.004;2023-02-01T09:07:39;9.40;;;3.20;;
56567;SDS011;42456;49.956;20.004;2023-02-01T09:10:06;8.70;;;3.10;;
56567;SDS011;42456;49.956;20.004;2023-02-01T09:12:33;8.20;;;2.80;;
56567;SDS011;42456;49.956;20.004;2023-02-01T09:15:00;9.10;;;3.10;;
56567;SDS011;42456;49.956;20.004;2023-02-01T09:17:28;7.00;;;3.10;;
56567;SDS011;42456;49.956;20.004;2023-02-01T09:19:56;8.00;;;3.20;;
56567;SDS011;42456;49.956;20.004;2023-02-01T09:22:23;7.10;;;2.80;;
56567;SDS011;42456;49.956;20.004;2023-02-01T09:24:50;6.30;;;2.80;;
56567;SDS011;42456;49.956;20.004;2023-02-01T09:27:20;10.90;;;3.20;;
56567;SDS011;42456;49.956;20.004;2023-02-01T09:29:47;7.10;;;2.50;;
56567;SDS011;42456;49.956;20.004;2023-02-01T09:32:19;6.00;;;2.50;;
56567;SDS011;42456;49.956;20.004;2023-02-01T09:34:47;8.30;;;2.70;;
56567;SDS011;42456;49.956;20.004;2023-02-01T09:37:14;8.90;;;2.70;;
56567;SDS011;42456;49.956;20.004;2023-02-01T09:39:41;6.00;;;2.70;;
56567;SDS011;42456;49.956;20.004;2023-02-01T09:42:54;8.10;;;2.50;;
56567;SDS011;42456;49.956;20.004;2023-02-01T09:45:17;4.30;;;2.40;;
56567;SDS011;42456;49.956;20.004;2023-02-01T09:47:51;8.90;;;2.50;;
56567;SDS011;42456;49.956;20.004;2023-02-01T09:53:06;9.30;;;3.30;;
56567;SDS011;42456;49.956;20.004;2023-02-01T09:55:42;7.60;;;2.60;;
56567;SDS011;42456;49.956;20.004;2023-02-01T09:58:17;7.90;;;2.90;;
56567;SDS011;42456;49.956;20.004;2023-02-01T10:00:55;7.70;;;3.30;;
56567;SDS011;42456;49.956;20.004;2023-02-01T10:03:26;7.00;;;2.80;;
56567;SDS011;42456;49.956;20.004;2023-02-01T10:20:20;5.20;;;2.50;;
56567;SDS011;42456;49.956;20.004;2023-02-01T10:26:44;7.50;;;2.50;;
56567;SDS011;42456;49.956;20.004;2023-02-01T10:28:52;7.80;;;2.60;;
56567;SDS011;42456;49.956;20.004;2023-02-01T10:31:23;7.90;;;3.30;;
56567;SDS011;42456;49.956;20.004;2023-02-01T10:33:56;7.90;;;3.10;;
56567;SDS011;42456;49.956;20.004;2023-02-01T10:36:29;9.20;;;3.40;;
56567;SDS011;42456;49.956;20.004;2023-02-01T10:39:02;7.40;;;2.70;;
56567;SDS011;42456;49.956;20.004;2023-02-01T10:41:31;8.80;;;2.90;;
56567;SDS011;42456;49.956;20.004;2023-02-01T10:44:03;8.40;;;3.30;;
56567;SDS011;42456;49.956;20.004;2023-02-01T10:46:32;8.30;;;3.20;;
56567;SDS011;42456;49.956;20.004;2023-02-01T10:49:00;5.60;;;2.90;;
56567;SDS011;42456;49.956;20.004;2023-02-01T10:51:38;7.70;;;3.20;;
56567;SDS011;42456;49.956;20.004;2023-02-01T10:54:21;10.60;;;3.40;;
56567;SDS011;42456;49.956;20.004;2023-02-01T10:56:57;9.60;;;3.60;;
56567;SDS011;42456;49.956;20.004;2023-02-01T10:59:28;8.70;;;3.50;;
56567;SDS011;42456;49.956;20.004;2023-02-01T11:02:00;7.20;;;3.30;;
56567;SDS011;42456;49.956;20.004;2023-02-01T11:04:31;7.90;;;3.00;;
56567;SDS011;42456;49.956;20.004;2023-02-01T11:07:06;5.90;;;2.70;;
56567;SDS011;42456;49.956;20.004;2023-02-01T11:09:54;11.70;;;3.60;;
56567;SDS011;42456;49.956;20.004;2023-02-01T11:12:36;9.60;;;3.40;;
56567;SDS011;42456;49.956;20.004;2023-02-01T11:17:50;8.40;;;3.10;;
56567;SDS011;42456;49.956;20.004;2023-02-01T11:20:20;9.50;;;3.20;;
56567;SDS011;42456;49.956;20.004;2023-02-01T11:23:01;6.10;;;2.90;;
56567;SDS011;42456;49.956;20.004;2023-02-01T11:25:28;9.10;;;3.10;;
56567;SDS011;42456;49.956;20.004;2023-02-01T11:27:59;6.10;;;2.90;;
56567;SDS011;42456;49.956;20.004;2023-02-01T11:30:31;9.80;;;4.60;;
56567;SDS011;42456;49.956;20.004;2023-02-01T11:32:59;13.70;;;4.00;;
56567;SDS011;42456;49.956;20.004;2023-02-01T11:35:26;8.80;;;3.20;;
56567;SDS011;42456;49.956;20.004;2023-02-01T11:37:59;8.30;;;3.40;;
56567;SDS011;42456;49.956;20.004;2023-02-01T11:40:29;10.80;;;3.40;;
56567;SDS011;42456;49.956;20.004;2023-02-01T11:43:35;8.00;;;2.90;;
56567;SDS011;42456;49.956;20.004;2023-02-01T11:45:59;11.30;;;4.00;;
56567;SDS011;42456;49.956;20.004;2023-02-01T11:48:29;8.10;;;3.00;;
56567;SDS011;42456;49.956;20.004;2023-02-01T11:59:19;9.50;;;3.20;;
56567;SDS011;42456;49.956;20.004;2023-02-01T12:09:46;8.70;;;3.10;;
56567;SDS011;42456;49.956;20.004;2023-02-01T12:12:30;9.10;;;3.60;;
56567;SDS011;42456;49.956;20.004;2023-02-01T12:23:42;8.50;;;3.50;;
56567;SDS011;42456;49.956;20.004;2023-02-01T12:26:26;8.30;;;3.30;;
56567;SDS011;42456;49.956;20.004;2023-02-01T12:32:56;7.30;;;3.10;;
56567;SDS011;42456;49.956;20.004;2023-02-01T12:35:02;11.00;;;3.90;;
56567;SDS011;42456;49.956;20.004;2023-02-01T12:48:40;8.70;;;3.10;;
56567;SDS011;42456;49.956;20.004;2023-02-01T12:51:17;9.30;;;3.20;;
56567;SDS011;42456;49.956;20.004;2023-02-01T12:56:25;12.90;;;4.20;;
56567;SDS011;42456;49.956;20.004;2023-02-01T12:59:02;8.50;;;3.30;;
56567;SDS011;42456;49.956;20.004;2023-02-01T13:01:35;8.20;;;3.40;;
56567;SDS011;42456;49.956;20.004;2023-02-01T13:04:10;10.30;;;3.20;;
56567;SDS011;42456;49.956;20.004;2023-02-01T13:06:45;8.00;;;3.10;;
56567;SDS011;42456;49.956;20.004;2023-02-01T13:09:23;10.00;;;3.20;;
56567;SDS011;42456;49.956;20.004;2023-02-01T13:11:57;6.40;;;2.80;;
56567;SDS011;42456;49.956;20.004;2023-02-01T13:17:22;5.70;;;2.90;;
56567;SDS011;42456;49.956;20.004;2023-02-01T13:20:03;6.50;;;2.80;;
56567;SDS011;42456;49.956;20.004;2023-02-01T13:22:41;8.70;;;3.10;;
56567;SDS011;42456;49.956;20.004;2023-02-01T13:25:13;10.80;;;3.50;;
56567;SDS011;42456;49.956;20.004;2023-02-01T13:27:41;8.50;;;3.10;;
56567;SDS011;42456;49.956;20.004;2023-02-01T13:41:41;7.60;;;2.90;;
56567;SDS011;42456;49.956;20.004;2023-02-01T13:44:21;7.80;;;3.40;;
56567;SDS011;42456;49.956;20.004;2023-02-01T13:49:49;7.10;;;2.70;;
56567;SDS011;42456;49.956;20.004;2023-02-01T13:52:23;6.80;;;2.50;;
56567;SDS011;42456;49.956;20.004;2023-02-01T13:55:35;7.60;;;2.80;;
56567;SDS011;42456;49.956;20.004;2023-02-01T13:57:47;9.30;;;3.20;;
56567;SDS011;42456;49.956;20.004;2023-02-01T14:02:50;7.20;;;3.10;;
56567;SDS011;42456;49.956;20.004;2023-02-01T14:36:46;8.90;;;2.80;;
56567;SDS011;42456;49.956;20.004;2023-02-01T14:39:20;7.10;;;2.30;;
56567;SDS011;42456;49.956;20.004;2023-02-01T14:41:59;7.30;;;2.50;;
56567;SDS011;42456;49.956;20.004;2023-02-01T14:44:30;5.20;;;2.50;;
56567;SDS011;42456;49.956;20.004;2023-02-01T14:47:05;8.50;;;3.20;;
56567;SDS011;42456;49.956;20.004;2023-02-01T14:49:43;8.10;;;3.20;;
56567;SDS011;42456;49.956;20.004;2023-02-01T14:52:14;6.00;;;3.00;;
56567;SDS011;42456;49.956;20.004;2023-02-01T14:54:47;8.40;;;3.10;;
56567;SDS011;42456;49.956;20.004;2023-02-01T14:57:26;8.80;;;3.70;;
56567;SDS011;42456;49.956;20.004;2023-02-01T14:59:59;9.40;;;3.80;;
56567;SDS011;42456;49.956;20.004;2023-02-01T15:02:33;10.10;;;3.80;;
56567;SDS011;42456;49.956;20.004;2023-02-01T15:05:12;9.40;;;4.50;;
56567;SDS011;42456;49.956;20.004;2023-02-01T15:07:51;11.00;;;4.10;;
56567;SDS011;42456;49.956;20.004;2023-02-01T15:10:19;13.80;;;5.30;;
56567;SDS011;42456;49.956;20.004;2023-02-01T15:12:48;9.50;;;4.10;;
56567;SDS011;42456;49.956;20.004;2023-02-01T15:15:18;8.70;;;3.60;;
56567;SDS011;42456;49.956;20.004;2023-02-01T15:20:25;9.10;;;3.50;;
56567;SDS011;42456;49.956;20.004;2023-02-01T15:23:00;9.60;;;3.20;;
56567;SDS011;42456;49.956;20.004;2023-02-01T15:25:32;6.30;;;3.20;;
56567;SDS011;42456;49.956;20.004;2023-02-01T15:28:05;9.00;;;3.60;;
56567;SDS011;42456;49.956;20.004;2023-02-01T15:30:39;9.70;;;4.30;;
56567;SDS011;42456;49.956;20.004;2023-02-01T15:33:18;8.40;;;3.50;;
56567;SDS011;42456;49.956;20.004;2023-02-01T15:35:52;7.30;;;3.70;;
56567;SDS011;42456;49.956;20.004;2023-02-01T15:38:31;7.00;;;3.20;;
56567;SDS011;42456;49.956;20.004;2023-02-01T15:41:11;5.70;;;3.30;;
56567;SDS011;42456;49.956;20.004;2023-02-01T15:46:31;6.60;;;3.60;;
56567;SDS011;42456;49.956;20.004;2023-02-01T15:48:58;7.90;;;3.60;;
56567;SDS011;42456;49.956;20.004;2023-02-01T15:51:27;6.60;;;3.40;;
56567;SDS011;42456;49.956;20.004;2023-02-01T15:54:02;6.10;;;3.40;;
56567;SDS011;42456;49.956;20.004;2023-02-01T15:56:36;7.40;;;3.50;;
56567;SDS011;42456;49.956;20.004;2023-02-01T15:59:12;9.00;;;4.70;;
56567;SDS011;42456;49.956;20.004;2023-02-01T16:01:41;11.40;;;4.80;;
56567;SDS011;42456;49.956;20.004;2023-02-01T16:06:45;7.70;;;3.50;;
56567;SDS011;42456;49.956;20.004;2023-02-01T16:09:16;5.60;;;2.90;;
56567;SDS011;42456;49.956;20.004;2023-02-01T16:14:18;7.00;;;3.80;;
56567;SDS011;42456;49.956;20.004;2023-02-01T16:16:45;9.00;;;3.90;;
56567;SDS011;42456;49.956;20.004;2023-02-01T16:19:12;8.50;;;3.70;;
56567;SDS011;42456;49.956;20.004;2023-02-01T16:21:39;7.80;;;3.60;;
56567;SDS011;42456;49.956;20.004;2023-02-01T16:24:06;7.70;;;3.90;;
56567;SDS011;42456;49.956;20.004;2023-02-01T16:26:33;9.40;;;4.00;;
56567;SDS011;42456;49.956;20.004;2023-02-01T16:29:00;8.50;;;4.40;;
56567;SDS011;42456;49.956;20.004;2023-02-01T16:31:34;9.60;;;4.10;;
56567;SDS011;42456;49.956;20.004;2023-02-01T16:34:04;7.60;;;4.20;;
56567;SDS011;42456;49.956;20.004;2023-02-01T16:36:33;10.50;;;4.40;;
56567;SDS011;42456;49.956;20.004;2023-02-01T16:39:00;10.10;;;4.30;;
56567;SDS011;42456;49.956;20.004;2023-02-01T16:41:29;7.70;;;3.70;;
56567;SDS011;42456;49.956;20.004;2023-02-01T16:43:56;7.00;;;3.50;;
56567;SDS011;42456;49.956;20.004;2023-02-01T16:46:24;9.20;;;4.10;;
56567;SDS011;42456;49.956;20.004;2023-02-01T16:48:54;8.70;;;4.00;;
56567;SDS011;42456;49.956;20.004;2023-02-01T16:51:23;8.60;;;4.10;;
56567;SDS011;42456;49.956;20.004;2023-02-01T16:53:52;12.00;;;5.00;;
56567;SDS011;42456;49.956;20.004;2023-02-01T16:56:24;14.40;;;6.00;;
56567;SDS011;42456;49.956;20.004;2023-02-01T16:58:56;14.40;;;5.80;;
56567;SDS011;42456;49.956;20.004;2023-02-01T17:01:23;15.00;;;6.10;;
56567;SDS011;42456;49.956;20.004;2023-02-01T17:03:50;12.20;;;5.30;;
56567;SDS011;42456;49.956;20.004;2023-02-01T17:06:18;11.00;;;4.90;;
56567;SDS011;42456;49.956;20.004;2023-02-01T17:08:53;10.40;;;4.60;;
56567;SDS011;42456;49.956;20.004;2023-02-01T17:11:21;12.10;;;4.90;;
56567;SDS011;42456;49.956;20.004;2023-02-01T17:13:48;11.30;;;4.70;;
56567;SDS011;42456;49.956;20.004;2023-02-01T17:18:46;10.10;;;4.60;;
56567;SDS011;42456;49.956;20.004;2023-02-01T17:21:29;11.30;;;4.50;;
56567;SDS011;42456;49.956;20.004;2023-02-01T17:24:01;10.20;;;4.60;;
56567;SDS011;42456;49.956;20.004;2023-02-01T17:26:28;12.70;;;4.70;;
56567;SDS011;42456;49.956;20.004;2023-02-01T17:28:55;12.80;;;4.60;;
56567;SDS011;42456;49.956;20.004;2023-02-01T17:31:23;11.60;;;5.10;;
56567;SDS011;42456;49.956;20.004;2023-02-01T17:33:50;12.40;;;4.90;;
56567;SDS011;42456;49.956;20.004;2023-02-01T17:36:17;12.60;;;4.50;;
56567;SDS011;42456;49.956;20.004;2023-02-01T17:38:44;12.40;;;4.90;;
56567;SDS011;42456;49.956;20.004;2023-02-01T17:41:25;10.10;;;4.40;;
56567;SDS011;42456;49.956;20.004;2023-02-01T17:43:53;12.60;;;5.00;;
56567;SDS011;42456;49.956;20.004;2023-02-01T17:46:20;12.40;;;4.80;;
56567;SDS011;42456;49.956;20.004;2023-02-01T17:48:55;13.10;;;5.00;;